Wetterdaten: Woche 18.11.13 - 24.11.13 (KW47)
Datum Zeit Temp. A. Feuchte A. Luftdruck Regen Wind Richtung Taupunkt Windchill Windben
18.11.2013 00:00 6,0 C 96 % 1020,8 hPa 0,0 l/m 3,1 km/h (1 Bft) O-SO 5,4 C 6,0 C 7,5 km/h (2 Bft)
18.11.2013 01:00 5,8 C 95 % 1020,0 hPa 0,0 l/m 2,5 km/h (1 Bft) O-SO 5,0 C 5,8 C 6,7 km/h (2 Bft)
18.11.2013 02:00 5,7 C 95 % 1019,1 hPa 0,0 l/m 3,5 km/h (1 Bft) O 5,0 C 5,7 C 7,3 km/h (2 Bft)
18.11.2013 03:00 5,7 C 95 % 1018,0 hPa 0,0 l/m 2,8 km/h (1 Bft) O-SO 4,9 C 5,7 C 7,2 km/h (2 Bft)
18.11.2013 04:00 5,5 C 94 % 1016,9 hPa 0,0 l/m 4,2 km/h (1 Bft) O-SO 4,6 C 5,4 C 8,7 km/h (2 Bft)
18.11.2013 05:00 5,3 C 93 % 1015,8 hPa 0,0 l/m 3,6 km/h (1 Bft) SO 4,3 C 5,3 C 9,7 km/h (2 Bft)
18.11.2013 06:00 5,1 C 93 % 1014,8 hPa 0,0 l/m 3,3 km/h (1 Bft) SO 4,1 C 5,1 C 7,9 km/h (2 Bft)
18.11.2013 07:00 4,9 C 92 % 1014,1 hPa 0,0 l/m 2,8 km/h (1 Bft) S-SO 3,7 C 4,9 C 6,5 km/h (2 Bft)
18.11.2013 08:00 4,8 C 92 % 1013,6 hPa 0,0 l/m 1,5 km/h (1 Bft) S-SO 3,6 C 4,8 C 4,1 km/h (1 Bft)
18.11.2013 09:00 4,8 C 92 % 1012,9 hPa 0,0 l/m 1,8 km/h (1 Bft) O-SO 3,6 C 4,8 C 5,2 km/h (1 Bft)
18.11.2013 10:00 4,9 C 92 % 1012,5 hPa 0,0 l/m 1,1 km/h (1 Bft) S-SO 3,7 C 4,9 C 3,7 km/h (1 Bft)
18.11.2013 11:00 5,1 C 92 % 1011,8 hPa 0,0 l/m 1,4 km/h (1 Bft) S-SW 3,9 C 5,1 C 4,0 km/h (1 Bft)
18.11.2013 12:00 5,3 C 92 % 1010,9 hPa 0,0 l/m 2,4 km/h (1 Bft) S-SW 4,1 C 5,3 C 5,7 km/h (2 Bft)
18.11.2013 13:00 5,4 C 91 % 1010,2 hPa 0,0 l/m 3,1 km/h (1 Bft) S-SW 4,1 C 5,4 C 7,1 km/h (2 Bft)
18.11.2013 14:00 5,4 C 91 % 1009,7 hPa 0,0 l/m 4,1 km/h (1 Bft) SW 4,1 C 5,4 C 9,0 km/h (2 Bft)
18.11.2013 15:00 5,4 C 91 % 1009,1 hPa 0,0 l/m 3,6 km/h (1 Bft) S-SW 4,1 C 5,4 C 7,8 km/h (2 Bft)
18.11.2013 16:00 5,3 C 91 % 1008,8 hPa 0,0 l/m 3,1 km/h (1 Bft) SW 4,0 C 5,3 C 7,8 km/h (2 Bft)
18.11.2013 17:00 5,2 C 91 % 1008,7 hPa 0,0 l/m 3,0 km/h (1 Bft) S-SW 3,8 C 5,2 C 6,8 km/h (2 Bft)
18.11.2013 18:00 4,9 C 92 % 1009,0 hPa 0,0 l/m 3,4 km/h (1 Bft) S 3,7 C 4,9 C 7,9 km/h (2 Bft)
18.11.2013 19:00 4,8 C 92 % 1008,7 hPa 0,2 l/m 3,2 km/h (1 Bft) S-SW 3,6 C 4,8 C 7,2 km/h (2 Bft)
18.11.2013 20:00 4,7 C 92 % 1008,6 hPa 0,0 l/m 3,6 km/h (1 Bft) SW 3,5 C 4,7 C 8,3 km/h (2 Bft)
18.11.2013 21:00 4,6 C 92 % 1008,3 hPa 0,0 l/m 3,4 km/h (1 Bft) S-SW 3,4 C 4,6 C 8,3 km/h (2 Bft)
18.11.2013 22:00 4,5 C 92 % 1008,0 hPa 0,0 l/m 3,2 km/h (1 Bft) S-SW 3,3 C 4,5 C 8,9 km/h (2 Bft)
18.11.2013 23:00 4,4 C 92 % 1007,8 hPa 0,0 l/m 3,8 km/h (1 Bft) S-SW 3,2 C 4,4 C 8,2 km/h (2 Bft)
19.11.2013 00:00 4,5 C 90 % 1007,6 hPa 0,0 l/m 3,3 km/h (1 Bft) S-SW 3,1 C 4,5 C 8,7 km/h (2 Bft)
19.11.2013 01:00 4,4 C 92 % 1007,4 hPa 0,0 l/m 4,6 km/h (1 Bft) SW 3,1 C 4,4 C 11,8 km/h (2 Bft)
19.11.2013 02:00 4,1 C 94 % 1007,0 hPa 0,0 l/m 2,6 km/h (1 Bft) SW 3,1 C 4,1 C 7,2 km/h (2 Bft)
19.11.2013 03:00 4,2 C 93 % 1006,9 hPa 0,0 l/m 1,7 km/h (1 Bft) S-SW 3,1 C 4,2 C 4,3 km/h (1 Bft)
19.11.2013 04:00 4,3 C 92 % 1006,6 hPa 0,0 l/m 0,7 km/h (0 Bft) S-SO 3,0 C 4,3 C 2,0 km/h (1 Bft)
19.11.2013 05:00 4,3 C 91 % 1006,4 hPa 0,0 l/m 0,4 km/h (0 Bft) S 2,9 C 4,3 C 1,7 km/h (1 Bft)
19.11.2013 06:00 4,4 C 89 % 1006,4 hPa 0,0 l/m 0,8 km/h (0 Bft) S-SO 2,7 C 4,4 C 1,9 km/h (1 Bft)
19.11.2013 07:00 4,5 C 88 % 1006,6 hPa 0,0 l/m 0,8 km/h (0 Bft) S-SW 2,7 C 4,5 C 2,1 km/h (1 Bft)
19.11.2013 08:00 4,6 C 87 % 1007,0 hPa 0,0 l/m 1,0 km/h (0 Bft) S-SW 2,7 C 4,6 C 3,5 km/h (1 Bft)
19.11.2013 09:00 4,9 C 86 % 1007,4 hPa 0,0 l/m 1,7 km/h (1 Bft) S-SW 2,8 C 4,9 C 4,0 km/h (1 Bft)
19.11.2013 10:00 5,2 C 86 % 1007,6 hPa 0,0 l/m 1,6 km/h (1 Bft) S-SW 3,1 C 5,2 C 4,4 km/h (1 Bft)
19.11.2013 11:00 5,6 C 85 % 1007,5 hPa 0,0 l/m 1,9 km/h (1 Bft) SW 3,4 C 5,6 C 5,2 km/h (1 Bft)
19.11.2013 12:00 6,6 C 81 % 1006,9 hPa 0,0 l/m 3,8 km/h (1 Bft) SW 3,6 C 6,6 C 7,8 km/h (2 Bft)
19.11.2013 13:00 6,7 C 81 % 1006,6 hPa 0,0 l/m 1,1 km/h (0 Bft) S-SW 3,7 C 6,7 C 3,5 km/h (1 Bft)
19.11.2013 14:00 6,6 C 81 % 1006,6 hPa 0,0 l/m 1,0 km/h (0 Bft) SW 3,6 C 6,6 C 2,9 km/h (1 Bft)
19.11.2013 15:00 6,3 C 82 % 1006,7 hPa 0,0 l/m 0,1 km/h (0 Bft) N 3,5 C 6,3 C 0,3 km/h (0 Bft)
19.11.2013 16:00 5,1 C 87 % 1006,8 hPa 0,0 l/m 0,0 km/h (0 Bft) N 3,1 C 5,1 C 0,0 km/h (0 Bft)
19.11.2013 17:00 3,7 C 91 % 1007,0 hPa 0,0 l/m 0,0 km/h (0 Bft) N 2,4 C 3,7 C 0,0 km/h (0 Bft)
19.11.2013 18:00 3,3 C 93 % 1007,7 hPa 0,0 l/m 0,0 km/h (0 Bft) N 2,3 C 3,3 C 0,0 km/h (0 Bft)
19.11.2013 19:00 3,8 C 94 % 1007,8 hPa 0,0 l/m 0,0 km/h (0 Bft) N 2,9 C 3,8 C 0,0 km/h (0 Bft)
19.11.2013 20:00 4,2 C 94 % 1007,7 hPa 0,0 l/m 0,0 km/h (0 Bft) N 3,2 C 4,2 C 0,0 km/h (0 Bft)
19.11.2013 21:00 4,5 C 93 % 1007,9 hPa 0,0 l/m 0,5 km/h (0 Bft) NW 3,5 C 4,5 C 1,6 km/h (1 Bft)
19.11.2013 22:00 4,6 C 95 % 1007,6 hPa 0,0 l/m 2,3 km/h (1 Bft) N-NW 3,8 C 4,6 C 4,4 km/h (1 Bft)
19.11.2013 23:00 5,1 C 95 % 1007,2 hPa 0,0 l/m 6,0 km/h (2 Bft) N-NW 4,3 C 4,9 C 10,6 km/h (2 Bft)
20.11.2013 00:00 5,3 C 95 % 1007,3 hPa 0,2 l/m 5,5 km/h (2 Bft) N 4,5 C 5,3 C 9,9 km/h (2 Bft)
20.11.2013 01:00 5,4 C 95 % 1007,1 hPa 0,2 l/m 7,0 km/h (2 Bft) N 4,6 C 4,7 C 12,0 km/h (2 Bft)
20.11.2013 02:00 5,2 C 95 % 1006,6 hPa 0,2 l/m 6,6 km/h (2 Bft) N-NW 4,4 C 4,9 C 11,6 km/h (2 Bft)
20.11.2013 03:00 5,1 C 94 % 1006,2 hPa 0,2 l/m 8,1 km/h (2 Bft) N-NW 4,2 C 3,5 C 14,4 km/h (3 Bft)
20.11.2013 04:00 4,9 C 94 % 1005,8 hPa 0,4 l/m 10,3 km/h (2 Bft) N-NW 4,0 C 1,8 C 17,8 km/h (3 Bft)
20.11.2013 05:00 4,8 C 94 % 1005,7 hPa 0,2 l/m 8,7 km/h (2 Bft) N 3,9 C 2,8 C 15,3 km/h (3 Bft)
20.11.2013 06:00 4,5 C 94 % 1005,8 hPa 0,4 l/m 7,2 km/h (2 Bft) N-NW 3,6 C 3,8 C 12,5 km/h (2 Bft)
20.11.2013 07:00 4,1 C 94 % 1006,0 hPa 0,4 l/m 6,5 km/h (2 Bft) N-NW 3,2 C 3,9 C 11,2 km/h (2 Bft)
20.11.2013 08:00 3,7 C 94 % 1005,8 hPa 0,6 l/m 6,9 km/h (2 Bft) N-NW 2,9 C 3,2 C 11,4 km/h (2 Bft)
20.11.2013 09:00 3,8 C 94 % 1005,3 hPa 0,2 l/m 4,6 km/h (1 Bft) N-NW 2,9 C 3,8 C 7,6 km/h (2 Bft)
20.11.2013 10:00 4,0 C 94 % 1005,0 hPa 0,0 l/m 4,0 km/h (1 Bft) NW 3,2 C 4,0 C 6,9 km/h (2 Bft)
20.11.2013 11:00 4,3 C 93 % 1004,4 hPa 0,0 l/m 4,8 km/h (1 Bft) N-NW 3,3 C 4,3 C 8,2 km/h (2 Bft)
20.11.2013 12:00 4,5 C 92 % 1003,8 hPa 0,0 l/m 4,3 km/h (1 Bft) NW 3,4 C 4,5 C 7,3 km/h (2 Bft)
20.11.2013 13:00 4,8 C 91 % 1003,2 hPa 0,0 l/m 3,3 km/h (1 Bft) NW 3,4 C 4,8 C 6,6 km/h (2 Bft)
20.11.2013 14:00 4,9 C 89 % 1003,0 hPa 0,0 l/m 2,0 km/h (1 Bft) NW 3,2 C 4,9 C 4,5 km/h (1 Bft)
20.11.2013 15:00 4,6 C 90 % 1003,0 hPa 0,0 l/m 0,0 km/h (0 Bft) N 3,0 C 4,6 C 0,0 km/h (0 Bft)
20.11.2013 16:00 3,8 C 91 % 1002,9 hPa 0,0 l/m 0,0 km/h (0 Bft) N 2,6 C 3,8 C 0,0 km/h (0 Bft)
20.11.2013 17:00 2,9 C 92 % 1003,0 hPa 0,0 l/m 0,0 km/h (0 Bft) N 1,8 C 2,9 C 0,0 km/h (0 Bft)
20.11.2013 18:00 1,9 C 94 % 1003,0 hPa 0,0 l/m 0,0 km/h (0 Bft) N 1,0 C 1,9 C 0,0 km/h (0 Bft)
20.11.2013 19:00 0,6 C 95 % 1003,1 hPa 0,0 l/m 0,0 km/h (0 Bft) N -0,1 C 0,6 C 0,0 km/h (0 Bft)
20.11.2013 20:00 -0,4 C 95 % 1003,3 hPa 0,0 l/m 0,0 km/h (0 Bft) N -1,1 C -0,4 C 0,0 km/h (0 Bft)
20.11.2013 21:00 -0,5 C 95 % 1003,4 hPa 0,0 l/m 0,0 km/h (0 Bft) N -1,2 C -0,5 C 0,0 km/h (0 Bft)
20.11.2013 22:00 -0,8 C 95 % 1003,5 hPa 0,0 l/m 0,0 km/h (0 Bft) N -1,5 C -0,8 C 0,0 km/h (0 Bft)
20.11.2013 23:00 -1,4 C 96 % 1003,6 hPa 0,0 l/m 0,0 km/h (0 Bft) N -2,0 C -1,4 C 0,0 km/h (0 Bft)
21.11.2013 00:00 -1,7 C 96 % 1003,5 hPa 0,0 l/m 0,0 km/h (0 Bft) N -2,3 C -1,7 C 0,0 km/h (0 Bft)
21.11.2013 01:00 -2,0 C 96 % 1003,4 hPa 0,0 l/m 0,0 km/h (0 Bft) N -2,5 C -2,0 C 0,0 km/h (0 Bft)
21.11.2013 02:00 -2,5 C 96 % 1003,4 hPa 0,0 l/m 0,0 km/h (0 Bft) N -3,1 C -2,5 C 0,0 km/h (0 Bft)
21.11.2013 03:00 -2,8 C 96 % 1003,6 hPa 0,0 l/m 0,4 km/h (0 Bft) O -3,4 C -2,8 C 1,4 km/h (1 Bft)
21.11.2013 04:00 -2,0 C 96 % 1003,7 hPa 0,0 l/m 0,4 km/h (0 Bft) NO -2,6 C -2,0 C 1,1 km/h (0 Bft)
21.11.2013 05:00 -2,0 C 96 % 1003,6 hPa 0,0 l/m 0,2 km/h (0 Bft) N -2,6 C -2,0 C 0,7 km/h (0 Bft)
21.11.2013 06:00 -1,8 C 96 % 1003,7 hPa 0,0 l/m 1,3 km/h (1 Bft) NO -2,4 C -1,8 C 2,4 km/h (1 Bft)
21.11.2013 07:00 -2,2 C 96 % 1004,2 hPa 0,0 l/m 0,9 km/h (0 Bft) NO -2,7 C -2,2 C 2,0 km/h (1 Bft)
21.11.2013 08:00 -1,8 C 96 % 1004,9 hPa 0,0 l/m 0,7 km/h (0 Bft) O -2,4 C -1,8 C 1,9 km/h (1 Bft)
21.11.2013 09:00 -1,7 C 96 % 1005,3 hPa 0,0 l/m 2,2 km/h (1 Bft) NO -2,2 C -1,7 C 4,6 km/h (1 Bft)
21.11.2013 10:00 -1,7 C 96 % 1005,5 hPa 0,0 l/m 3,8 km/h (1 Bft) NO -2,3 C -1,7 C 6,3 km/h (2 Bft)
21.11.2013 11:00 -1,3 C 96 % 1005,7 hPa 0,0 l/m 3,6 km/h (1 Bft) N-NO -1,8 C -1,3 C 6,3 km/h (2 Bft)
21.11.2013 12:00 -0,6 C 96 % 1005,6 hPa 0,0 l/m 4,3 km/h (1 Bft) N-NO -1,2 C -0,6 C 7,4 km/h (2 Bft)
21.11.2013 13:00 0,2 C 96 % 1005,5 hPa 0,0 l/m 4,5 km/h (1 Bft) NO -0,4 C 0,2 C 8,0 km/h (2 Bft)
21.11.2013 14:00 0,7 C 96 % 1005,6 hPa 0,0 l/m 3,5 km/h (1 Bft) N-NO 0,1 C 0,7 C 6,4 km/h (2 Bft)
21.11.2013 15:00 0,8 C 96 % 1006,0 hPa 0,0 l/m 5,3 km/h (1 Bft) N-NO 0,2 C 0,6 C 8,4 km/h (2 Bft)
21.11.2013 16:00 0,5 C 96 % 1006,5 hPa 0,0 l/m 3,6 km/h (1 Bft) N-NO -0,0 C 0,5 C 5,7 km/h (2 Bft)
21.11.2013 17:00 0,3 C 97 % 1006,8 hPa 0,0 l/m 3,7 km/h (1 Bft) N-NO -0,2 C 0,3 C 6,0 km/h (2 Bft)
21.11.2013 18:00 0,3 C 97 % 1007,2 hPa 0,0 l/m 3,6 km/h (1 Bft) N-NO -0,2 C 0,3 C 5,9 km/h (2 Bft)
21.11.2013 19:00 0,6 C 97 % 1007,3 hPa 0,0 l/m 2,9 km/h (1 Bft) N-NO 0,1 C 0,6 C 5,2 km/h (1 Bft)
21.11.2013 20:00 1,0 C 97 % 1008,0 hPa 0,0 l/m 0,3 km/h (0 Bft) N 0,6 C 1,0 C 0,9 km/h (0 Bft)
21.11.2013 21:00 1,1 C 97 % 1008,0 hPa 0,0 l/m 2,8 km/h (1 Bft) N 0,7 C 1,1 C 4,4 km/h (1 Bft)
21.11.2013 22:00 1,0 C 97 % 1007,9 hPa 0,2 l/m 3,9 km/h (1 Bft) N-NO 0,5 C 1,0 C 6,5 km/h (2 Bft)
21.11.2013 23:00 1,1 C 97 % 1008,5 hPa 0,0 l/m 4,1 km/h (1 Bft) N-NO 0,7 C 1,1 C 6,3 km/h (2 Bft)
22.11.2013 00:00 1,1 C 97 % 1008,7 hPa 0,0 l/m 4,7 km/h (1 Bft) N 0,7 C 1,1 C 7,5 km/h (2 Bft)
22.11.2013 01:00 1,1 C 97 % 1008,8 hPa 0,0 l/m 5,5 km/h (2 Bft) N-NO 0,7 C 1,1 C 9,3 km/h (2 Bft)
22.11.2013 02:00 1,0 C 97 % 1009,0 hPa 0,4 l/m 5,7 km/h (2 Bft) N-NO 0,6 C 1,0 C 9,9 km/h (2 Bft)
22.11.2013 03:00 0,9 C 97 % 1009,1 hPa 0,8 l/m 4,7 km/h (1 Bft) NO 0,5 C 0,9 C 8,3 km/h (2 Bft)
22.11.2013 04:00 0,8 C 97 % 1009,5 hPa 0,6 l/m 5,3 km/h (1 Bft) N-NO 0,4 C 0,7 C 9,3 km/h (2 Bft)
22.11.2013 05:00 1,2 C 97 % 1009,6 hPa 0,2 l/m 5,8 km/h (2 Bft) N-NO 0,7 C 1,0 C 10,6 km/h (2 Bft)
22.11.2013 06:00 1,4 C 97 % 1009,5 hPa 0,0 l/m 8,4 km/h (2 Bft) NO 1,0 C -0,5 C 14,4 km/h (3 Bft)
22.11.2013 07:00 1,6 C 97 % 1010,3 hPa 0,0 l/m 7,8 km/h (2 Bft) NO 1,2 C 0,2 C 14,5 km/h (3 Bft)
22.11.2013 08:00 1,7 C 97 % 1011,1 hPa 0,0 l/m 5,4 km/h (1 Bft) NO 1,2 C 1,5 C 10,6 km/h (2 Bft)
22.11.2013 09:00 1,8 C 97 % 1011,4 hPa 0,0 l/m 7,9 km/h (2 Bft) N-NO 1,4 C 0,4 C 12,9 km/h (3 Bft)
22.11.2013 10:00 2,1 C 97 % 1011,7 hPa 0,0 l/m 9,6 km/h (2 Bft) NO 1,7 C -0,8 C 16,5 km/h (3 Bft)
22.11.2013 11:00 2,5 C 97 % 1011,8 hPa 0,0 l/m 9,5 km/h (2 Bft) N-NO 2,1 C -0,2 C 16,6 km/h (3 Bft)
22.11.2013 12:00 2,9 C 97 % 1011,8 hPa 0,0 l/m 8,7 km/h (2 Bft) N-NO 2,5 C 0,8 C 14,5 km/h (3 Bft)
22.11.2013 13:00 3,4 C 97 % 1012,0 hPa 0,0 l/m 7,9 km/h (2 Bft) N-NO 3,0 C 2,0 C 13,6 km/h (3 Bft)
22.11.2013 14:00 3,8 C 97 % 1012,3 hPa 0,0 l/m 8,3 km/h (2 Bft) N-NO 3,3 C 2,1 C 14,1 km/h (3 Bft)
22.11.2013 15:00 4,0 C 97 % 1012,5 hPa 0,2 l/m 8,4 km/h (2 Bft) N-NO 3,6 C 2,2 C 14,2 km/h (3 Bft)
22.11.2013 16:00 4,1 C 96 % 1012,8 hPa 0,0 l/m 7,8 km/h (2 Bft) N-NO 3,5 C 2,8 C 13,1 km/h (3 Bft)
22.11.2013 17:00 4,2 C 95 % 1013,3 hPa 0,0 l/m 8,9 km/h (2 Bft) N-NO 3,5 C 2,0 C 15,2 km/h (3 Bft)
22.11.2013 18:00 4,3 C 95 % 1013,7 hPa 0,0 l/m 9,5 km/h (2 Bft) N-NO 3,5 C 1,6 C 16,0 km/h (3 Bft)
22.11.2013 19:00 4,3 C 95 % 1014,1 hPa 0,0 l/m 9,2 km/h (2 Bft) N-NO 3,5 C 2,0 C 15,2 km/h (3 Bft)
22.11.2013 20:00 4,4 C 95 % 1014,4 hPa 0,0 l/m 7,0 km/h (2 Bft) N-NO 3,6 C 3,7 C 11,8 km/h (2 Bft)
22.11.2013 21:00 4,4 C 95 % 1014,9 hPa 0,0 l/m 5,4 km/h (2 Bft) N-NO 3,7 C 4,4 C 10,0 km/h (2 Bft)
22.11.2013 22:00 4,5 C 95 % 1015,0 hPa 0,0 l/m 5,0 km/h (1 Bft) N-NO 3,8 C 4,6 C 8,2 km/h (2 Bft)
22.11.2013 23:00 4,6 C 95 % 1015,3 hPa 0,0 l/m 4,6 km/h (1 Bft) NO 3,9 C 4,6 C 8,3 km/h (2 Bft)
23.11.2013 00:00 4,7 C 95 % 1015,4 hPa 0,0 l/m 5,6 km/h (2 Bft) N-NO 4,0 C 4,6 C 9,8 km/h (2 Bft)
23.11.2013 01:00 4,8 C 95 % 1015,6 hPa 0,0 l/m 4,8 km/h (1 Bft) N-NO 4,1 C 4,8 C 8,3 km/h (2 Bft)
23.11.2013 02:00 4,9 C 95 % 1015,8 hPa 0,0 l/m 5,1 km/h (1 Bft) N-NO 4,2 C 4,9 C 8,0 km/h (2 Bft)
23.11.2013 03:00 5,1 C 96 % 1015,7 hPa 0,0 l/m 5,8 km/h (2 Bft) N 4,4 C 5,0 C 9,3 km/h (2 Bft)
23.11.2013 04:00 5,2 C 96 % 1016,0 hPa 0,4 l/m 4,6 km/h (1 Bft) N-NO 4,6 C 5,2 C 8,0 km/h (2 Bft)
23.11.2013 05:00 5,3 C 96 % 1016,5 hPa 0,0 l/m 5,5 km/h (2 Bft) N-NO 4,7 C 5,3 C 9,5 km/h (2 Bft)
23.11.2013 06:00 5,3 C 96 % 1016,8 hPa 0,0 l/m 5,2 km/h (1 Bft) N 4,7 C 5,3 C 9,4 km/h (2 Bft)
23.11.2013 07:00 5,3 C 96 % 1017,3 hPa 0,0 l/m 7,1 km/h (2 Bft) N-NO 4,7 C 4,7 C 11,6 km/h (2 Bft)
23.11.2013 08:00 5,4 C 95 % 1017,7 hPa 0,0 l/m 7,5 km/h (2 Bft) N-NO 4,7 C 4,4 C 13,0 km/h (3 Bft)
23.11.2013 09:00 5,5 C 95 % 1018,3 hPa 0,0 l/m 7,1 km/h (2 Bft) N 4,7 C 4,9 C 11,8 km/h (2 Bft)
23.11.2013 10:00 5,7 C 95 % 1018,8 hPa 0,0 l/m 7,1 km/h (2 Bft) N-NO 4,9 C 5,0 C 12,1 km/h (2 Bft)
23.11.2013 11:00 5,9 C 95 % 1018,9 hPa 0,0 l/m 6,8 km/h (2 Bft) NO 5,1 C 5,6 C 11,3 km/h (2 Bft)
23.11.2013 12:00 6,2 C 95 % 1018,9 hPa 0,2 l/m 7,5 km/h (2 Bft) N-NO 5,4 C 5,1 C 12,7 km/h (3 Bft)
23.11.2013 13:00 6,4 C 93 % 1018,9 hPa 0,0 l/m 7,6 km/h (2 Bft) NO 5,3 C 5,4 C 13,0 km/h (3 Bft)
23.11.2013 14:00 6,4 C 93 % 1018,9 hPa 0,0 l/m 8,0 km/h (2 Bft) N-NO 5,3 C 5,0 C 13,4 km/h (3 Bft)
23.11.2013 15:00 6,2 C 93 % 1019,1 hPa 0,0 l/m 6,6 km/h (2 Bft) N-NO 5,1 C 5,7 C 11,0 km/h (2 Bft)
23.11.2013 16:00 5,9 C 93 % 1019,4 hPa 0,0 l/m 5,1 km/h (1 Bft) N-NO 4,8 C 5,9 C 8,5 km/h (2 Bft)
23.11.2013 17:00 5,5 C 94 % 1019,6 hPa 0,0 l/m 5,5 km/h (2 Bft) N 4,6 C 5,5 C 9,1 km/h (2 Bft)
23.11.2013 18:00 5,2 C 94 % 1019,8 hPa 0,0 l/m 5,2 km/h (1 Bft) N-NO 4,4 C 5,2 C 9,2 km/h (2 Bft)
23.11.2013 19:00 4,7 C 94 % 1019,9 hPa 0,0 l/m 3,8 km/h (1 Bft) N 3,8 C 4,7 C 6,5 km/h (2 Bft)
23.11.2013 20:00 4,3 C 95 % 1020,2 hPa 0,0 l/m 2,0 km/h (1 Bft) N-NW 3,6 C 4,3 C 3,9 km/h (1 Bft)
23.11.2013 21:00 4,0 C 94 % 1020,2 hPa 0,0 l/m 1,3 km/h (1 Bft) N-NW 3,2 C 4,0 C 2,1 km/h (1 Bft)
23.11.2013 22:00 2,6 C 95 % 1020,1 hPa 0,0 l/m 0,4 km/h (0 Bft) N-NW 1,8 C 2,6 C 0,8 km/h (0 Bft)
23.11.2013 23:00 0,9 C 95 % 1020,3 hPa 0,0 l/m 0,0 km/h (0 Bft) N 0,2 C 0,9 C 0,0 km/h (0 Bft)
24.11.2013 00:00 0,3 C 96 % 1020,3 hPa 0,0 l/m 0,0 km/h (0 Bft) N -0,3 C 0,3 C 0,0 km/h (0 Bft)
24.11.2013 01:00 -0,4 C 96 % 1020,0 hPa 0,0 l/m 0,0 km/h (0 Bft) N -1,0 C -0,4 C 0,0 km/h (0 Bft)
24.11.2013 02:00 -1,2 C 96 % 1019,9 hPa 0,0 l/m 0,0 km/h (0 Bft) N -1,8 C -1,2 C 0,0 km/h (0 Bft)
24.11.2013 03:00 -0,5 C 96 % 1019,8 hPa 0,0 l/m 0,5 km/h (0 Bft) S -1,0 C -0,5 C 2,0 km/h (1 Bft)
24.11.2013 04:00 0,1 C 96 % 1019,6 hPa 0,0 l/m 0,3 km/h (0 Bft) N -0,5 C 0,1 C 1,2 km/h (1 Bft)
24.11.2013 05:00 0,5 C 96 % 1019,5 hPa 0,0 l/m 0,3 km/h (0 Bft) S-SW -0,1 C 0,5 C 1,2 km/h (1 Bft)
24.11.2013 06:00 0,9 C 96 % 1019,4 hPa 0,0 l/m 1,0 km/h (0 Bft) S-SW 0,4 C 0,9 C 3,5 km/h (1 Bft)
24.11.2013 07:00 1,2 C 96 % 1019,4 hPa 0,0 l/m 0,7 km/h (0 Bft) SW 0,6 C 1,2 C 2,9 km/h (1 Bft)
24.11.2013 08:00 1,7 C 96 % 1019,3 hPa 0,0 l/m 1,4 km/h (1 Bft) SW 1,1 C 1,7 C 4,4 km/h (1 Bft)
24.11.2013 09:00 2,5 C 96 % 1019,2 hPa 0,2 l/m 2,3 km/h (1 Bft) W 2,0 C 2,5 C 6,8 km/h (2 Bft)
24.11.2013 10:00 3,3 C 97 % 1019,3 hPa 0,0 l/m 3,2 km/h (1 Bft) W-SW 2,9 C 3,3 C 8,0 km/h (2 Bft)
24.11.2013 11:00 4,8 C 95 % 1019,1 hPa 0,0 l/m 6,8 km/h (2 Bft) W-NW 4,0 C 3,6 C 13,5 km/h (3 Bft)
24.11.2013 12:00 5,0 C 84 % 1019,5 hPa 0,0 l/m 11,7 km/h (2 Bft) N-NW 2,6 C 1,0 C 20,8 km/h (4 Bft)
24.11.2013 13:00 5,1 C 83 % 1019,8 hPa 0,0 l/m 11,6 km/h (2 Bft) N-NW 2,4 C 1,2 C 20,6 km/h (4 Bft)
24.11.2013 14:00 5,4 C 79 % 1020,1 hPa 0,0 l/m 12,6 km/h (2 Bft) N-NW 1,9 C 0,9 C 21,8 km/h (4 Bft)
24.11.2013 15:00 4,7 C 77 % 1020,8 hPa 0,0 l/m 10,1 km/h (2 Bft) N-NW 1,0 C 1,6 C 18,8 km/h (3 Bft)
24.11.2013 16:00 4,2 C 74 % 1021,6 hPa 0,0 l/m 9,1 km/h (2 Bft) NW 0,0 C 1,9 C 16,2 km/h (3 Bft)
24.11.2013 17:00 3,5 C 75 % 1022,4 hPa 0,0 l/m 8,3 km/h (2 Bft) N-NW -0,5 C 1,8 C 14,8 km/h (3 Bft)
24.11.2013 18:00 2,0 C 80 % 1023,3 hPa 0,0 l/m 5,6 km/h (2 Bft) N-NW -1,2 C 1,8 C 9,7 km/h (2 Bft)
24.11.2013 19:00 0,6 C 84 % 1024,1 hPa 0,0 l/m 3,2 km/h (1 Bft) NW -1,8 C 0,6 C 5,6 km/h (2 Bft)
24.11.2013 20:00 -0,3 C 86 % 1024,8 hPa 0,0 l/m 2,2 km/h (1 Bft) NW -2,4 C -0,3 C 4,4 km/h (1 Bft)
24.11.2013 21:00 -1,2 C 87 % 1025,5 hPa 0,0 l/m 1,0 km/h (0 Bft) NW -3,1 C -1,2 C 2,7 km/h (1 Bft)
24.11.2013 22:00 -1,7 C 87 % 1026,0 hPa 0,0 l/m 2,3 km/h (1 Bft) W-NW -3,6 C -1,7 C 4,3 km/h (1 Bft)
24.11.2013 23:00 -2,0 C 87 % 1026,4 hPa 0,0 l/m 1,2 km/h (1 Bft) NW -3,9 C -2,0 C 2,9 km/h (1 Bft)
Min-Datum _ 21.11.13 24.11.13 20.11.13 - 18.11.13 - 24.11.13 21.11.13 18.11.13
_ Min-Zeit 03:15 16:20 16:00 - 10:50 - 23:50 03:15 10:50
Minimum _ -3,3 C 73 % 1002,8 hPa - 0,0 km/h (0 Bft) - -4,1 C -3,3 C 0,0 km/h (0 Bft)
Max-Datum _ 19.11.13 21.11.13 24.11.13 22.11.13 24.11.13 - 18.11.13 19.11.13 24.11.13
_ Max-Zeit 14:05 15:45 23:50 03:00 14:35 - 00:00 14:05 13:25
Maximum _ 6,8 C 97 % 1026,5 hPa 0,8 l/m 16,3 km/h
N-NW (3 Bft)
- 5,5 C 6,8 C 27,4 km/h
N-NW (5 Bft)
Durchschnitt _ 3,1 C 93 % 1011,6 hPa #6,4 l/m 3,8 km/h (1 Bft) N-NO 2,1 C 2,8 C 7,2 km/h (2 Bft)